Berlin, Michigan
Current Conditions -  °F | °C
As of 8:13 AM on Tuesday 21 Oct 2014 (Local Time) from KD95 Reporting Station
Overcast Overcast  
Wind Chill: 40°   Ceiling: 1200
Heat Index: 45°   Visibility: 10mi
Dew Point: 41°   Wind: 8mph
Humidity: 88%   Direction: 20°NNE
Pressure: 29.98"   Gusts: 17mph
Location:  42.9384°N, 82.9255°W
Report Text: KD95 211213Z AUTO 02007G15KT 10SM BKN012 OVC019 07/05 A2998 RMK AO2 T00710052
Loading
Personal Weather Stations






























Interactive Weather Map
Tropical Storm Tracking
New forecast layout! Learn more

10-Day Weather Forecast

Advertisements
Track Severe Weather on mobile